createdAt,value
2018-09-28T00:00:37.070Z,72.80
2018-09-28T00:03:11.781Z,73.10
2018-09-28T00:05:47.167Z,73.90
2018-09-28T00:08:21.977Z,73.10
2018-09-28T00:10:58.126Z,72.20
2018-09-28T00:13:32.860Z,71.90
2018-09-28T00:16:07.777Z,71.70
2018-09-28T00:18:42.629Z,71.50
2018-09-28T00:21:17.360Z,72.30
2018-09-28T00:23:52.196Z,73.80
2018-09-28T00:26:27.910Z,73.90
2018-09-28T00:29:03.053Z,74.10
2018-09-28T00:31:37.840Z,73.80
2018-09-28T00:34:12.705Z,74.00
2018-09-28T00:36:47.498Z,74.20
2018-09-28T00:39:22.569Z,74.00
2018-09-28T00:41:57.297Z,74.80
2018-09-28T00:44:31.991Z,74.50
2018-09-28T00:47:07.464Z,74.20
2018-09-28T00:49:42.298Z,74.20
2018-09-28T00:52:17.286Z,74.70
2018-09-28T00:54:52.074Z,75.00
2018-09-28T00:57:26.801Z,75.00
2018-09-28T01:00:01.571Z,74.60
2018-09-28T01:02:36.602Z,75.00
2018-09-28T01:05:11.811Z,75.00
2018-09-28T01:07:47.504Z,75.60
2018-09-28T01:10:22.590Z,75.40
2018-09-28T01:12:58.018Z,75.80
2018-09-28T01:15:33.529Z,76.50
2018-09-28T01:18:09.022Z,76.00
2018-09-28T01:20:43.765Z,75.80
2018-09-28T01:23:18.482Z,75.70
2018-09-28T01:25:53.404Z,76.00
2018-09-28T01:28:28.227Z,76.70
2018-09-28T01:31:04.120Z,76.90
2018-09-28T01:33:39.518Z,76.50
2018-09-28T01:36:14.998Z,76.50
2018-09-28T01:38:50.238Z,76.50
2018-09-28T01:41:25.642Z,77.20
2018-09-28T01:44:01.129Z,77.40
2018-09-28T01:46:36.237Z,76.80
2018-09-28T01:49:11.660Z,77.60
2018-09-28T01:51:47.304Z,77.60
2018-09-28T01:54:22.146Z,77.00
2018-09-28T01:56:56.885Z,77.10
2018-09-28T01:59:32.222Z,77.30
2018-09-28T02:02:08.070Z,77.30
2018-09-28T02:04:42.797Z,77.30
2018-09-28T02:07:17.721Z,77.80
2018-09-28T02:09:52.587Z,76.70
2018-09-28T02:12:27.676Z,77.40
2018-09-28T02:15:03.343Z,77.60
2018-09-28T02:17:38.664Z,78.60
2018-09-28T02:20:13.646Z,78.60
2018-09-28T02:22:48.434Z,77.50
2018-09-28T02:25:23.193Z,77.40
2018-09-28T02:27:58.033Z,76.90
2018-09-28T02:30:32.745Z,76.90
2018-09-28T02:33:07.485Z,77.20
2018-09-28T02:35:42.290Z,77.60
2018-09-28T02:38:17.021Z,77.60
2018-09-28T02:40:51.845Z,78.00
2018-09-28T02:43:26.805Z,78.40
2018-09-28T02:46:01.626Z,78.40
2018-09-28T02:48:37.013Z,78.40
2018-09-28T02:51:11.844Z,78.40
2018-09-28T02:53:46.450Z,78.50
2018-09-28T02:56:21.366Z,78.20
2018-09-28T02:58:56.308Z,78.10
2018-09-28T03:01:31.442Z,78.40
2018-09-28T03:04:06.653Z,78.90
2018-09-28T03:06:41.621Z,78.80
2018-09-28T03:09:16.460Z,78.50
2018-09-28T03:11:52.011Z,78.20
2018-09-28T03:14:27.042Z,78.70
2018-09-28T03:17:01.939Z,78.60
2018-09-28T03:19:36.698Z,78.10
2018-09-28T03:22:12.414Z,78.70
2018-09-28T03:24:47.192Z,79.80
2018-09-28T03:27:22.226Z,79.30
2018-09-28T03:29:57.112Z,79.30
2018-09-28T03:32:31.878Z,79.20
2018-09-28T03:35:06.571Z,80.00
2018-09-28T03:37:42.102Z,79.10
2018-09-28T03:40:16.734Z,78.90
2018-09-28T03:42:51.482Z,79.10
2018-09-28T03:45:26.290Z,79.10
2018-09-28T03:48:01.269Z,79.40
2018-09-28T03:50:35.923Z,79.40
2018-09-28T03:53:11.526Z,80.00
2018-09-28T03:55:46.342Z,80.50
2018-09-28T03:58:21.386Z,81.00
2018-09-28T04:00:56.870Z,81.50
2018-09-28T04:03:31.615Z,81.10
2018-09-28T04:06:06.773Z,80.80
2018-09-28T04:08:42.267Z,80.40
2018-09-28T04:11:16.988Z,80.10
2018-09-28T04:13:52.176Z,80.00
2018-09-28T04:16:27.021Z,80.40
2018-09-28T04:19:01.824Z,80.30
2018-09-28T04:21:36.694Z,80.30
2018-09-28T04:24:12.266Z,80.80
2018-09-28T04:26:47.750Z,81.40
2018-09-28T04:29:22.884Z,80.80
2018-09-28T04:31:57.586Z,80.00
2018-09-28T04:34:32.349Z,80.20
2018-09-28T04:37:07.437Z,81.10
2018-09-28T04:39:42.854Z,81.30
2018-09-28T04:42:17.796Z,81.80
2018-09-28T04:44:53.246Z,81.50
2018-09-28T04:47:27.937Z,81.90
2018-09-28T04:50:02.636Z,82.10
2018-09-28T04:52:37.501Z,81.90
2018-09-28T04:55:13.014Z,81.50
2018-09-28T04:57:47.874Z,82.30
2018-09-28T05:00:23.515Z,81.40
2018-09-28T05:02:59.060Z,81.40
2018-09-28T05:05:34.093Z,81.30
2018-09-28T05:08:08.765Z,80.80
2018-09-28T05:10:43.574Z,80.80
2018-09-28T05:13:19.242Z,81.20
2018-09-28T05:15:55.123Z,82.10
2018-09-28T05:18:30.183Z,81.30
2018-09-28T05:21:05.211Z,81.30
2018-09-28T05:23:39.957Z,81.70
2018-09-28T05:26:15.390Z,81.80
2018-09-28T05:28:50.145Z,82.10
2018-09-28T05:31:25.080Z,81.80
2018-09-28T05:34:00.639Z,81.80
2018-09-28T05:36:35.374Z,81.70
2018-09-28T05:39:10.570Z,82.30
2018-09-28T05:41:45.191Z,82.60
2018-09-28T05:44:20.779Z,82.80
2018-09-28T05:46:56.090Z,82.90
2018-09-28T05:49:31.022Z,83.10
2018-09-28T05:52:05.694Z,83.10
2018-09-28T05:54:41.369Z,83.60
2018-09-28T05:57:15.916Z,83.40
2018-09-28T05:59:56.185Z,83.40
2018-09-28T06:02:36.571Z,83.80
2018-09-28T06:05:16.597Z,84.20
2018-09-28T06:07:51.409Z,84.20
2018-09-28T06:10:26.273Z,84.20
2018-09-28T06:13:01.010Z,84.30
2018-09-28T06:15:35.753Z,84.30
2018-09-28T06:18:10.512Z,84.30
2018-09-28T06:20:45.710Z,84.50
2018-09-28T06:23:20.691Z,84.90
2018-09-28T06:25:56.202Z,85.00
2018-09-28T06:28:31.342Z,85.00
2018-09-28T06:31:06.615Z,85.30
2018-09-28T06:33:41.254Z,85.60
2018-09-28T06:36:16.237Z,85.70
2018-09-28T06:38:51.164Z,85.60
2018-09-28T06:41:26.025Z,84.80
2018-09-28T06:44:00.877Z,85.00
2018-09-28T06:46:35.804Z,85.60
2018-09-28T06:49:10.840Z,85.50
2018-09-28T06:51:45.670Z,86.30
2018-09-28T06:54:20.454Z,86.00
2018-09-28T06:56:55.446Z,85.80
2018-09-28T06:59:30.278Z,85.10
2018-09-28T07:02:04.997Z,85.10
2018-09-28T07:04:39.731Z,85.40
2018-09-28T07:07:14.967Z,85.80
2018-09-28T07:09:49.888Z,85.30
2018-09-28T07:12:24.728Z,86.20
2018-09-28T07:14:59.555Z,85.90
2018-09-28T07:17:34.375Z,85.30
2018-09-28T07:20:09.285Z,85.60
2018-09-28T07:22:44.351Z,85.60
2018-09-28T07:25:19.203Z,85.10
2018-09-28T07:27:54.038Z,84.50
2018-09-28T07:30:28.960Z,84.30
2018-09-28T07:33:03.932Z,83.90
2018-09-28T07:35:39.006Z,83.30
2018-09-28T07:38:14.110Z,83.30
2018-09-28T07:40:49.053Z,82.60
2018-09-28T07:43:23.952Z,82.10
2018-09-28T07:45:58.682Z,81.70
2018-09-28T07:48:33.507Z,82.00
2018-09-28T07:51:08.966Z,81.60
2018-09-28T07:53:44.273Z,80.50
2018-09-28T07:56:19.767Z,78.10
2018-09-28T07:58:55.389Z,75.30
2018-09-28T08:01:30.649Z,74.10
2018-09-28T08:04:06.214Z,71.90
2018-09-28T08:06:42.622Z,70.50
2018-09-28T08:09:18.046Z,68.60
2018-09-28T08:11:53.385Z,67.20
2018-09-28T08:14:28.819Z,65.40
2018-09-28T08:17:05.110Z,63.90
2018-09-28T08:19:40.958Z,62.90
2018-09-28T08:22:16.318Z,62.30
2018-09-28T08:24:51.712Z,62.20
2018-09-28T08:27:27.910Z,60.80
2018-09-28T08:30:03.557Z,59.40
2018-09-28T08:32:38.894Z,58.80
2018-09-28T08:35:14.353Z,58.40
2018-09-28T08:37:49.730Z,57.00
2018-09-28T08:40:25.166Z,56.40
2018-09-28T08:43:00.620Z,53.70
2018-09-28T08:45:35.988Z,54.60
2018-09-28T08:48:11.477Z,53.80
2018-09-28T08:50:46.858Z,53.80
2018-09-28T08:53:22.194Z,52.60
2018-09-28T08:55:57.619Z,52.80
2018-09-28T08:58:32.933Z,52.80
2018-09-28T09:01:08.370Z,52.50
2018-09-28T09:03:43.923Z,51.50
2018-09-28T09:06:19.489Z,50.00
2018-09-28T09:08:55.537Z,49.10
2018-09-28T09:11:30.812Z,47.90
2018-09-28T09:14:06.252Z,46.60
2018-09-28T09:16:41.470Z,45.00
2018-09-28T09:19:16.959Z,43.10
2018-09-28T09:21:52.006Z,45.10
2018-09-28T09:24:27.193Z,43.90
2018-09-28T09:27:02.250Z,43.10
2018-09-28T09:29:37.366Z,41.70
2018-09-28T09:32:12.519Z,41.10
2018-09-28T09:34:48.030Z,41.10
2018-09-28T09:37:23.263Z,41.20
2018-09-28T09:39:58.747Z,40.50
2018-09-28T09:42:33.995Z,40.70
2018-09-28T09:45:09.290Z,40.20
2018-09-28T09:47:44.796Z,41.00
2018-09-28T09:50:20.273Z,41.50
2018-09-28T09:52:55.404Z,40.30
2018-09-28T09:55:31.273Z,40.00
2018-09-28T09:58:06.464Z,37.60
2018-09-28T10:00:46.917Z,37.10
2018-09-28T10:03:27.259Z,36.80
2018-09-28T10:06:02.285Z,36.00
2018-09-28T10:08:37.717Z,34.40
2018-09-28T10:11:12.864Z,35.40
2018-09-28T10:13:48.006Z,34.30
2018-09-28T10:16:23.026Z,34.30
2018-09-28T10:18:58.935Z,33.70
2018-09-28T10:21:35.249Z,33.20
2018-09-28T10:24:10.181Z,32.80
2018-09-28T10:26:46.147Z,33.30
2018-09-28T10:29:21.440Z,33.30
2018-09-28T10:31:56.733Z,31.60
2018-09-28T10:34:31.923Z,31.70
2018-09-28T10:37:07.737Z,32.80
2018-09-28T10:39:42.841Z,32.30
2018-09-28T10:42:18.129Z,32.40
2018-09-28T10:44:53.677Z,31.60
2018-09-28T10:47:28.698Z,31.90
2018-09-28T10:50:04.140Z,32.00
2018-09-28T10:52:39.223Z,31.30
2018-09-28T10:55:14.586Z,31.10
2018-09-28T10:57:49.661Z,31.00
2018-09-28T11:00:24.866Z,30.60
2018-09-28T11:03:00.081Z,31.10
2018-09-28T11:05:35.190Z,32.80
2018-09-28T11:08:10.221Z,33.00
2018-09-28T11:10:45.451Z,32.80
2018-09-28T11:13:20.622Z,32.30
2018-09-28T11:15:56.100Z,31.60
2018-09-28T11:18:31.212Z,32.80
2018-09-28T11:21:06.810Z,30.00
2018-09-28T11:23:42.086Z,30.90
2018-09-28T11:26:17.284Z,30.80
2018-09-28T11:28:52.961Z,32.20
2018-09-28T11:31:28.091Z,31.50
2018-09-28T11:34:03.945Z,30.40
2018-09-28T11:36:39.228Z,30.70
2018-09-28T11:39:14.408Z,30.30
2018-09-28T11:41:49.882Z,30.80
2018-09-28T11:44:24.856Z,31.10
2018-09-28T11:46:59.877Z,33.10
2018-09-28T11:49:34.994Z,33.00
2018-09-28T11:52:10.850Z,31.80
2018-09-28T11:54:45.831Z,32.10
2018-09-28T11:57:21.117Z,31.60
2018-09-28T11:59:56.868Z,32.10
2018-09-28T12:02:32.190Z,31.00
2018-09-28T12:05:08.206Z,31.00
2018-09-28T12:07:43.391Z,30.10
2018-09-28T12:10:18.838Z,30.70
2018-09-28T12:12:53.954Z,30.10
2018-09-28T12:15:29.283Z,30.30
2018-09-28T12:18:04.664Z,31.90
2018-09-28T12:20:39.830Z,31.90
2018-09-28T12:23:14.951Z,31.40
2018-09-28T12:25:50.754Z,31.20
2018-09-28T12:28:25.739Z,31.60
2018-09-28T12:31:01.099Z,32.30
2018-09-28T12:33:36.310Z,32.60
2018-09-28T12:36:11.765Z,31.90
2018-09-28T12:38:47.814Z,31.70
2018-09-28T12:41:23.006Z,30.90
2018-09-28T12:43:58.103Z,31.30
2018-09-28T12:46:33.298Z,31.70
2018-09-28T12:49:08.278Z,31.40
2018-09-28T12:51:43.363Z,32.70
2018-09-28T12:54:18.707Z,32.20
2018-09-28T12:56:54.002Z,31.30
2018-09-28T12:59:29.242Z,31.20
2018-09-28T13:02:04.784Z,30.70
2018-09-28T13:04:40.208Z,29.80
2018-09-28T13:07:15.384Z,29.70
2018-09-28T13:09:51.143Z,29.50
2018-09-28T13:12:26.421Z,29.40
2018-09-28T13:15:01.773Z,29.50
2018-09-28T13:17:37.034Z,28.50
2018-09-28T13:20:13.161Z,26.90
2018-09-28T13:22:48.542Z,27.60
2018-09-28T13:25:23.808Z,28.00
2018-09-28T13:27:58.943Z,29.10
2018-09-28T13:30:34.770Z,30.00
2018-09-28T13:33:10.057Z,30.00
2018-09-28T13:35:45.134Z,28.50
2018-09-28T13:38:20.249Z,28.90
2018-09-28T13:40:55.454Z,29.60
2018-09-28T13:43:30.624Z,28.00
2018-09-28T13:46:06.579Z,28.40
2018-09-28T13:48:42.117Z,28.80
2018-09-28T13:51:17.755Z,30.10
2018-09-28T13:53:52.949Z,31.70
2018-09-28T13:56:28.352Z,31.80
2018-09-28T13:59:04.837Z,32.00
2018-09-28T14:01:39.889Z,31.50
2018-09-28T14:04:15.390Z,31.70
2018-09-28T14:06:51.177Z,30.70
2018-09-28T14:09:26.343Z,32.00
2018-09-28T14:12:01.405Z,31.00
2018-09-28T14:14:36.636Z,30.90
2018-09-28T14:17:12.150Z,31.50
2018-09-28T14:19:47.589Z,32.20
2018-09-28T14:22:22.819Z,33.90
2018-09-28T14:24:57.963Z,35.00
2018-09-28T14:27:33.799Z,35.70
2018-09-28T14:30:09.883Z,36.30
2018-09-28T14:32:45.258Z,35.60
2018-09-28T14:35:21.160Z,36.00
2018-09-28T14:37:56.209Z,36.40
2018-09-28T14:40:31.306Z,36.30
2018-09-28T14:43:06.680Z,34.70
2018-09-28T14:45:41.856Z,33.50
2018-09-28T14:48:17.713Z,32.90
2018-09-28T14:50:52.958Z,31.90
2018-09-28T14:53:28.161Z,32.30
2018-09-28T14:56:03.350Z,31.80
2018-09-28T14:58:38.614Z,31.90
2018-09-28T15:01:14.239Z,32.10
2018-09-28T15:03:49.407Z,31.70
2018-09-28T15:06:24.859Z,31.70
2018-09-28T15:09:00.191Z,32.00
2018-09-28T15:11:35.295Z,32.90
2018-09-28T15:14:11.399Z,33.70
2018-09-28T15:16:47.558Z,34.40
2018-09-28T15:19:23.308Z,35.20
2018-09-28T15:21:58.732Z,35.30
2018-09-28T15:24:34.229Z,35.60
2018-09-28T15:27:10.165Z,35.40
2018-09-28T15:29:46.320Z,34.70
2018-09-28T15:32:21.940Z,35.40
2018-09-28T15:34:57.477Z,35.90
2018-09-28T15:37:32.751Z,35.70
2018-09-28T15:40:09.115Z,35.20
2018-09-28T15:42:44.534Z,35.30
2018-09-28T15:45:20.304Z,35.80
2018-09-28T15:47:55.566Z,36.60
2018-09-28T15:50:30.804Z,36.30
2018-09-28T15:53:06.217Z,36.60
2018-09-28T15:55:41.531Z,36.40
2018-09-28T15:58:16.836Z,36.80
2018-09-28T16:00:52.305Z,37.30
2018-09-28T16:03:27.742Z,37.50
2018-09-28T16:06:03.299Z,37.40
2018-09-28T16:08:38.797Z,37.10
2018-09-28T16:11:15.065Z,37.60
2018-09-28T16:13:50.411Z,37.70
2018-09-28T16:16:25.763Z,37.80
2018-09-28T16:19:01.394Z,38.40
2018-09-28T16:21:37.051Z,38.50
2018-09-28T16:24:13.243Z,38.70
2018-09-28T16:26:48.701Z,38.90
2018-09-28T16:29:24.742Z,39.10
2018-09-28T16:32:00.506Z,39.30
2018-09-28T16:34:35.975Z,39.70
2018-09-28T16:37:11.506Z,39.30
2018-09-28T16:39:46.859Z,40.00
2018-09-28T16:42:22.367Z,40.00
2018-09-28T16:44:57.700Z,39.90
2018-09-28T16:47:33.872Z,40.20
2018-09-28T16:50:09.505Z,40.20
2018-09-28T16:52:45.737Z,40.70
2018-09-28T16:55:21.917Z,41.00
2018-09-28T16:57:57.471Z,41.40
2018-09-28T17:00:32.941Z,41.60
2018-09-28T17:03:09.212Z,42.30
2018-09-28T17:05:45.887Z,42.50
2018-09-28T17:08:21.507Z,42.50
2018-09-28T17:10:56.728Z,42.80
2018-09-28T17:13:32.049Z,43.00
2018-09-28T17:16:08.234Z,43.60
2018-09-28T17:18:43.560Z,44.50
2018-09-28T17:21:19.068Z,44.90
2018-09-28T17:23:54.467Z,44.70
2018-09-28T17:26:29.872Z,44.80
2018-09-28T17:29:05.281Z,44.90
2018-09-28T17:31:40.582Z,45.20
2018-09-28T17:34:16.023Z,45.70
2018-09-28T17:36:51.440Z,45.60
2018-09-28T17:39:26.919Z,45.80
2018-09-28T17:42:02.940Z,46.10
2018-09-28T17:44:38.294Z,46.30
2018-09-28T17:47:15.330Z,47.50
2018-09-28T17:49:51.646Z,47.30
2018-09-28T17:52:27.168Z,48.20
2018-09-28T17:55:02.706Z,48.20
2018-09-28T17:57:38.043Z,48.00
2018-09-28T18:00:13.518Z,48.00
2018-09-28T18:02:48.823Z,47.50
2018-09-28T18:05:24.414Z,47.40
2018-09-28T18:07:59.754Z,48.00
2018-09-28T18:10:35.163Z,47.90
2018-09-28T18:13:10.632Z,48.50
2018-09-28T18:15:46.181Z,48.40
2018-09-28T18:18:21.819Z,48.20
2018-09-28T18:20:57.142Z,48.80
2018-09-28T18:23:32.749Z,48.80
2018-09-28T18:26:08.703Z,48.80
2018-09-28T18:28:44.315Z,49.00
2018-09-28T18:31:20.708Z,49.20
2018-09-28T18:33:56.838Z,49.70
2018-09-28T18:36:32.641Z,49.50
2018-09-28T18:39:09.462Z,49.90
2018-09-28T18:41:44.917Z,50.10
2018-09-28T18:44:20.366Z,50.10
2018-09-28T18:46:55.685Z,50.40
2018-09-28T18:49:31.111Z,50.20
2018-09-28T18:52:06.603Z,50.40
2018-09-28T18:54:41.708Z,51.20
2018-09-28T18:57:16.402Z,51.30
2018-09-28T18:59:52.002Z,50.70
2018-09-28T19:02:26.942Z,50.20
2018-09-28T19:05:01.836Z,49.90
2018-09-28T19:07:37.099Z,49.80
2018-09-28T19:10:12.527Z,49.70
2018-09-28T19:12:47.284Z,49.90
2018-09-28T19:15:22.290Z,49.90
2018-09-28T19:17:57.969Z,50.20
2018-09-28T19:20:32.876Z,50.00
2018-09-28T19:23:07.709Z,50.30
2018-09-28T19:25:42.731Z,50.30
2018-09-28T19:28:17.766Z,50.60
2018-09-28T19:30:52.523Z,51.50
2018-09-28T19:33:28.094Z,51.20
2018-09-28T19:36:02.950Z,51.40
2018-09-28T19:38:37.938Z,52.80
2018-09-28T19:41:13.373Z,53.50
2018-09-28T19:43:48.287Z,55.20
2018-09-28T19:46:23.584Z,55.70
2018-09-28T19:48:58.340Z,56.30
2018-09-28T19:51:33.319Z,56.60
2018-09-28T19:54:08.329Z,57.30
2018-09-28T19:56:43.099Z,57.80
2018-09-28T19:59:17.849Z,57.90
2018-09-28T20:01:52.530Z,58.10
2018-09-28T20:04:27.533Z,58.70
2018-09-28T20:07:02.903Z,59.30
2018-09-28T20:09:38.554Z,59.40
2018-09-28T20:12:14.050Z,59.60
2018-09-28T20:14:48.717Z,60.60
2018-09-28T20:17:23.534Z,60.50
2018-09-28T20:19:58.464Z,60.70
2018-09-28T20:22:34.268Z,61.50
2018-09-28T20:25:09.679Z,61.80
2018-09-28T20:27:44.459Z,62.30
2018-09-28T20:30:19.743Z,62.70
2018-09-28T20:32:54.820Z,63.10
2018-09-28T20:35:30.057Z,62.70
2018-09-28T20:38:05.155Z,62.50
2018-09-28T20:40:40.208Z,63.00
2018-09-28T20:43:15.147Z,62.80
2018-09-28T20:45:50.487Z,62.60
2018-09-28T20:48:25.826Z,63.20
2018-09-28T20:51:00.850Z,62.70
2018-09-28T20:53:35.783Z,62.90
2018-09-28T20:56:11.399Z,63.40
2018-09-28T20:58:46.179Z,63.40
2018-09-28T21:01:22.765Z,63.40
2018-09-28T21:03:57.852Z,63.20
2018-09-28T21:06:32.929Z,62.90
2018-09-28T21:09:09.328Z,63.20
2018-09-28T21:11:44.230Z,63.10
2018-09-28T21:14:19.202Z,63.60
2018-09-28T21:16:54.232Z,64.60
2018-09-28T21:19:29.158Z,64.30
2018-09-28T21:22:03.919Z,64.20
2018-09-28T21:24:38.761Z,64.40
2018-09-28T21:27:13.736Z,64.60
2018-09-28T21:29:48.497Z,64.60
2018-09-28T21:32:23.924Z,65.00
2018-09-28T21:34:58.830Z,65.60
2018-09-28T21:37:34.115Z,67.00
2018-09-28T21:40:09.178Z,66.90
2018-09-28T21:42:44.630Z,67.10
2018-09-28T21:45:19.746Z,67.40
2018-09-28T21:47:54.689Z,67.50
2018-09-28T21:50:29.583Z,67.20
2018-09-28T21:53:04.413Z,68.20
2018-09-28T21:55:39.573Z,67.30
2018-09-28T21:58:14.434Z,67.50
2018-09-28T22:00:55.945Z,67.30
2018-09-28T22:03:30.981Z,67.20
2018-09-28T22:06:05.730Z,66.90
2018-09-28T22:08:40.865Z,66.60
2018-09-28T22:11:16.093Z,66.80
2018-09-28T22:13:51.402Z,68.30
2018-09-28T22:16:26.382Z,68.20
2018-09-28T22:19:01.194Z,67.90
2018-09-28T22:21:37.033Z,67.90
2018-09-28T22:24:11.900Z,67.80
2018-09-28T22:26:46.715Z,67.90
2018-09-28T22:29:21.448Z,68.10
2018-09-28T22:31:56.217Z,69.10
2018-09-28T22:34:31.084Z,69.40
2018-09-28T22:37:06.458Z,70.20
2018-09-28T22:39:41.573Z,69.70
2018-09-28T22:42:16.715Z,69.90
2018-09-28T22:44:51.622Z,71.20
2018-09-28T22:47:26.277Z,70.90
2018-09-28T22:50:01.033Z,70.60
2018-09-28T22:52:35.816Z,70.60
2018-09-28T22:55:10.594Z,71.00
2018-09-28T22:57:45.804Z,72.10
2018-09-28T23:00:20.455Z,72.80
2018-09-28T23:02:55.290Z,73.30
2018-09-28T23:05:30.087Z,73.40
2018-09-28T23:08:04.857Z,73.30
2018-09-28T23:10:39.815Z,73.80
2018-09-28T23:13:15.546Z,74.50
2018-09-28T23:15:50.256Z,75.50
2018-09-28T23:18:26.242Z,75.60
2018-09-28T23:21:01.734Z,76.60
2018-09-28T23:23:36.429Z,76.60
2018-09-28T23:26:11.201Z,76.80
2018-09-28T23:28:46.570Z,76.90
2018-09-28T23:31:21.334Z,76.40
2018-09-28T23:33:56.349Z,76.30
2018-09-28T23:36:31.107Z,76.40
2018-09-28T23:39:07.917Z,76.40
2018-09-28T23:41:42.593Z,75.90
2018-09-28T23:44:17.941Z,76.10
2018-09-28T23:46:53.928Z,76.20
2018-09-28T23:49:28.714Z,76.30
2018-09-28T23:52:03.745Z,75.70
2018-09-28T23:54:38.477Z,75.50
2018-09-28T23:57:13.212Z,75.30
2018-09-28T23:59:48.425Z,75.60
